Toronto, Ohio
Current Conditions -  °F | °C
As of 10:53 AM on Thursday 27 Nov 2014 (Local Time) from KHLG Reporting Station
Overcast Overcast  
Wind Chill: -4°   Ceiling: 1300
Heat Index:   Visibility: 9mi
Dew Point: -3°   Wind: 9mph
Humidity: 78%   Direction: 280°W
Pressure: 30.09"   Gusts: NA
Location:  40.46°N, 80.61°W
Report Text: KHLG 271553Z 28008KT 9SM OVC013 01/M03 A3009 RMK AO2 SLP203 T00061028
Loading
Personal Weather Stations






























Interactive Weather Map New forecast layout! Learn more

10-Day Weather Forecast

Advertisements
Track Severe Weather on mobile